Time;durP1;ratioP1;P1;durP2;ratioP2;P2;SDS_P1;SDS_P2;PMS_P1;PMS_P2;Temp;Humidity;BMP_temperature;BMP_pressure;BME280_temperature;BME280_humidity;BME280_pressure;Samples;Min_cycle;Max_cycle;Signal;HPM_P1;HPM_P2
2021/12/21 00:01:25;;;;;;;4.13;2.75;;;-14.80;69.80;-16.10;97211.00;;;;4951572;28;83121;-62
2021/12/21 00:03:51;;;;;;;4.35;1.42;;;-14.80;69.80;-16.00;97225.00;;;;4958446;28;82586;-62
2021/12/21 00:06:18;;;;;;;3.28;1.38;;;-14.80;69.80;-16.10;97209.00;;;;4958273;28;82513;-62
2021/12/21 00:08:44;;;;;;;3.38;2.75;;;-14.80;69.80;-16.10;97210.00;;;;4950455;28;82270;-62
2021/12/21 00:11:10;;;;;;;3.13;2.13;;;-14.80;70.30;-16.10;97215.00;;;;4956349;28;82002;-62
2021/12/21 00:13:55;;;;;;;46.42;3.83;;;-14.90;70.20;-16.10;97233.00;;;;4956551;28;82279;-62
2021/12/21 00:19:22;;;;;;;2.78;1.50;;;-15.00;69.20;-16.40;97227.00;;;;4957274;28;82375;-62
2021/12/21 00:21:55;;;;;;;7.82;1.55;;;-15.10;68.70;-16.50;97214.00;;;;4948436;28;82948;-62
2021/12/21 00:24:29;;;;;;;2.33;1.58;;;-15.10;68.60;-16.40;97217.00;;;;4951289;28;82872;-61
2021/12/21 00:26:55;;;;;;;1.85;1.30;;;-15.10;68.80;-16.40;97213.00;;;;4948046;28;82672;-62
2021/12/21 00:29:22;;;;;;;4.70;2.83;;;-15.10;68.80;-16.40;97218.00;;;;4957512;28;83405;-64
2021/12/21 00:31:48;;;;;;;3.00;1.45;;;-15.20;69.30;-16.40;97216.00;;;;4954536;28;82058;-61
2021/12/21 00:34:15;;;;;;;3.15;1.35;;;-15.10;69.60;-16.40;97218.00;;;;4941812;28;82711;-61
2021/12/21 00:36:41;;;;;;;3.08;1.60;;;-15.10;69.20;-16.50;97214.00;;;;4937004;28;84622;-63
2021/12/21 00:39:11;;;;;;;3.63;1.45;;;-15.20;68.50;-16.50;97212.00;;;;4954737;28;82512;-61
2021/12/21 00:41:37;;;;;;;3.42;1.67;;;-15.20;68.50;-16.50;97214.00;;;;4945491;28;82537;-62
2021/12/21 00:44:04;;;;;;;2.47;1.20;;;-15.20;68.60;-16.50;97233.00;;;;4949576;28;83634;-62
2021/12/21 00:46:30;;;;;;;2.88;1.77;;;-15.20;68.50;-16.60;97237.00;;;;4950214;28;84500;-62
2021/12/21 00:49:01;;;;;;;2.40;1.30;;;-15.30;67.80;-16.60;97211.00;;;;4954783;28;83518;-62
2021/12/21 00:51:28;;;;;;;;;;;-15.30;68.00;-16.60;97228.00;;;;4932941;28;82772;-62
2021/12/21 00:53:54;;;;;;;5.90;1.40;;;-15.30;68.10;-16.60;97223.00;;;;4955975;28;82595;-62
2021/12/21 00:56:20;;;;;;;1.75;1.15;;;-15.30;68.50;-16.50;97224.00;;;;4953357;28;83886;-62
2021/12/21 00:58:46;;;;;;;2.33;1.58;;;-15.20;68.50;-16.50;97230.00;;;;4949511;28;81961;-62
2021/12/21 01:01:13;;;;;;;3.55;1.40;;;-15.20;68.30;-16.50;97235.00;;;;4952704;28;82699;-62
2021/12/21 01:03:46;;;;;;;2.42;1.20;;;-15.20;68.30;-16.60;97239.00;;;;4956622;28;83475;-62
2021/12/21 01:06:20;;;;;;;4.13;1.10;;;-15.30;68.10;-16.50;97228.00;;;;4938853;28;82484;-62
2021/12/21 01:12:01;;;;;;;3.15;1.35;;;-15.20;68.80;-16.50;97236.00;;;;4953959;28;82893;-62
2021/12/21 01:20:23;;;;;;;7.25;1.67;;;-15.20;68.60;-16.50;97231.00;;;;4953921;28;82285;-62
2021/12/21 01:24:59;;;;;;;3.75;1.63;;;-15.20;68.30;-16.50;97245.00;;;;4952543;28;82581;-62
2021/12/21 01:32:37;;;;;;;2.75;1.45;;;-15.20;68.60;-16.50;97247.00;;;;4938654;28;82721;-61
2021/12/21 01:35:21;;;;;;;3.70;1.67;;;-15.20;68.40;-16.60;97236.00;;;;4948818;28;83606;-61
2021/12/21 01:37:57;;;;;;;1.83;0.90;;;-15.30;69.00;-16.50;97253.00;;;;4948031;28;84513;-61
2021/12/21 01:40:51;;;;;;;4.53;1.48;;;-15.20;68.90;-16.50;97243.00;;;;4948986;28;84692;-61
2021/12/21 01:43:25;;;;;;;5.25;2.22;;;-15.20;68.50;-16.50;97236.00;;;;4946352;28;83586;-61
2021/12/21 01:51:22;;;;;;;3.28;1.35;;;-15.40;67.70;-16.70;97256.00;;;;4933043;28;82514;-61
2021/12/21 01:53:50;;;;;;;2.72;1.38;;;-15.40;68.20;-16.70;97259.00;;;;4936388;28;82472;-61
2021/12/21 01:56:17;;;;;;;3.78;1.40;;;-15.40;68.40;-16.70;97260.00;;;;4957001;28;82252;-62
2021/12/21 01:58:44;;;;;;;2.45;0.80;;;-15.30;68.20;-16.70;97262.00;;;;4955734;28;82832;-61
2021/12/21 02:01:15;;;;;;;2.00;1.10;;;-15.40;67.50;-16.70;97259.00;;;;4935330;28;82355;-61
2021/12/21 02:03:47;;;;;;;;;;;-15.40;67.70;-16.70;97261.00;;;;4953725;28;82860;-61
2021/12/21 02:06:18;;;;;;;;;;;-15.30;68.00;-16.70;97260.00;;;;4958020;28;82503;-61
2021/12/21 02:08:45;;;;;;;2.80;1.50;;;-15.40;67.40;-16.70;97256.00;;;;4955482;28;82499;-61
2021/12/21 02:11:12;;;;;;;3.83;2.28;;;-15.40;67.30;-16.80;97267.00;;;;4949765;28;82308;-61
2021/12/21 02:13:43;;;;;;;3.35;1.20;;;-15.40;67.40;-16.80;97279.00;;;;4949774;28;83324;-62
2021/12/21 02:16:09;;;;;;;3.58;2.40;;;-15.50;67.00;-16.80;97271.00;;;;4937565;28;83972;-62
2021/12/21 02:19:23;;;;;;;3.90;1.15;;;-15.50;66.90;-16.80;97270.00;;;;4948521;28;82768;-62
2021/12/21 02:21:34;;;;;;;1.55;1.00;;;-15.50;67.20;-16.80;97270.00;;;;4942501;28;83717;-62
2021/12/21 02:24:07;;;;;;;2.40;0.88;;;-15.50;67.00;-16.80;97279.00;;;;4953737;28;82218;-62
2021/12/21 02:26:42;;;;;;;3.08;1.15;;;-15.40;67.10;-16.80;97285.00;;;;4932842;28;83728;-62
2021/12/21 02:29:30;;;;;;;4.38;1.70;;;-15.40;67.00;-16.80;97291.00;;;;4951180;28;83620;-62
2021/12/21 02:31:56;;;;;;;2.75;1.48;;;-15.50;67.00;-16.80;97282.00;;;;4951602;28;83274;-61
2021/12/21 02:34:24;;;;;;;2.78;1.27;;;-15.50;67.00;-16.90;97292.00;;;;4950107;28;83453;-61
2021/12/21 02:36:54;;;;;;;2.20;1.30;;;-15.60;67.20;-16.90;97267.00;;;;4949580;28;84045;-61
2021/12/21 02:39:22;;;;;;;3.60;1.33;;;-15.60;66.10;-16.90;97283.00;;;;4950169;28;81919;-63
2021/12/21 02:41:48;;;;;;;3.65;1.48;;;-15.60;65.40;-16.90;97297.00;;;;4944355;28;82551;-61
2021/12/21 02:44:16;;;;;;;2.10;1.02;;;-15.60;65.40;-16.90;97290.00;;;;4929845;28;83444;-61
2021/12/21 02:46:44;;;;;;;3.05;2.00;;;-15.60;65.30;-17.00;97297.00;;;;4932366;28;83697;-60
2021/12/21 02:49:12;;;;;;;3.33;1.52;;;-15.60;65.20;-16.90;97279.00;;;;4961206;28;82062;-62
2021/12/21 02:51:41;;;;;;;2.70;1.08;;;-15.60;65.60;-17.00;97306.00;;;;4950713;28;83288;-62
2021/12/21 02:54:09;;;;;;;1.98;1.08;;;-15.60;65.70;-17.00;97303.00;;;;4949097;28;84049;-62
2021/12/21 02:56:35;;;;;;;2.55;1.30;;;-15.60;65.60;-17.00;97294.00;;;;4952756;28;83469;-62
2021/12/21 02:59:02;;;;;;;3.35;2.33;;;-15.70;65.60;-17.00;97322.00;;;;4949017;28;82713;-62
2021/12/21 03:01:29;;;;;;;3.83;1.30;;;-15.60;65.70;-17.00;97314.00;;;;4952709;28;84334;-62
2021/12/21 03:03:56;;;;;;;2.60;1.33;;;-15.60;65.90;-17.00;97325.00;;;;4953789;28;83447;-63
2021/12/21 03:09:37;;;;;;;2.15;1.13;;;-15.60;65.60;-17.00;97324.00;;;;4895180;28;82225;-62
2021/12/21 03:14:35;;;;;;;1.95;1.35;;;-15.70;65.30;-17.00;97318.00;;;;4957009;28;83284;-59
2021/12/21 03:17:02;;;;;;;3.30;1.30;;;-15.70;65.30;-17.00;97331.00;;;;4957288;28;84404;-53
2021/12/21 03:19:28;;;;;;;2.85;1.27;;;-15.70;65.30;-17.00;97328.00;;;;4960594;28;83545;-62
2021/12/21 03:21:54;;;;;;;3.42;1.40;;;-15.70;65.60;-17.00;97330.00;;;;4946880;28;84450;-62
2021/12/21 03:24:20;;;;;;;2.78;1.40;;;-15.70;65.30;-17.00;97332.00;;;;4954059;28;83652;-66
2021/12/21 03:26:47;;;;;;;2.13;1.10;;;-15.70;65.60;-17.00;97335.00;;;;4935153;28;82227;-66
2021/12/21 03:29:13;;;;;;;3.10;1.40;;;-15.70;65.80;-17.00;97330.00;;;;4949733;28;83403;-65
2021/12/21 03:31:39;;;;;;;1.88;1.00;;;-15.70;65.90;-17.00;97345.00;;;;4962381;28;83698;-65
2021/12/21 03:34:06;;;;;;;4.50;2.75;;;-15.60;66.40;-17.00;97332.00;;;;4947259;28;82322;-66
2021/12/21 03:36:33;;;;;;;2.97;1.40;;;-15.70;65.70;-17.10;97337.00;;;;4952142;28;83423;-65
2021/12/21 03:39:06;;;;;;;1.23;0.90;;;-15.70;66.00;-17.00;97332.00;;;;4952126;28;83046;-66
2021/12/21 03:41:39;;;;;;;2.33;1.00;;;-15.70;66.20;-17.00;97325.00;;;;4947043;28;83271;-56
2021/12/21 03:44:08;;;;;;;3.20;1.50;;;-15.70;66.20;-17.10;97335.00;;;;4940412;28;83022;-58
2021/12/21 03:46:34;;;;;;;3.58;2.28;;;-15.70;66.50;-17.10;97315.00;;;;4953929;28;82533;-55
2021/12/21 03:49:12;;;;;;;2.75;1.77;;;-15.80;66.80;-17.10;97325.00;;;;4962749;28;82642;-57
2021/12/21 03:51:39;;;;;;;2.05;1.30;;;-15.80;66.90;-17.10;97333.00;;;;4951996;28;82779;-56
2021/12/21 03:54:05;;;;;;;3.97;1.10;;;-15.80;67.10;-17.10;97319.00;;;;4953663;28;82132;-56
2021/12/21 03:56:40;;;;;;;4.05;2.70;;;-15.70;67.10;-17.10;97331.00;;;;4956990;28;83597;-57
2021/12/21 03:59:06;;;;;;;3.53;1.70;;;-15.80;67.40;-17.10;97331.00;;;;4948513;28;88769;-55
2021/12/21 04:01:33;;;;;;;1.95;1.15;;;-15.70;67.80;-17.10;97327.00;;;;4951913;28;87331;-57
2021/12/21 04:03:59;;;;;;;2.97;1.40;;;-15.80;68.10;-17.10;97333.00;;;;4952031;28;87045;-56
2021/12/21 04:06:25;;;;;;;4.60;1.55;;;-15.70;68.50;-17.10;97335.00;;;;4934552;28;87834;-55
2021/12/21 04:08:52;;;;;;;1.20;1.10;;;-15.70;68.20;-17.10;97346.00;;;;4953294;28;89797;-54
2021/12/21 04:11:18;;;;;;;2.75;1.75;;;-15.70;68.10;-17.00;97353.00;;;;4957618;28;89182;-57
2021/12/21 04:13:44;;;;;;;4.18;1.90;;;-15.70;68.60;-17.00;97356.00;;;;4955532;28;87754;-57
2021/12/21 04:16:10;;;;;;;3.63;1.77;;;-15.70;68.80;-17.00;97356.00;;;;4952720;28;87080;-56
2021/12/21 04:18:38;;;;;;;5.28;2.70;;;-15.70;68.70;-17.00;97354.00;;;;4959757;28;88608;-53
2021/12/21 04:21:09;;;;;;;3.13;1.58;;;-15.70;68.40;-17.00;97365.00;;;;4945531;28;87527;-57
2021/12/21 04:23:35;;;;;;;4.03;2.67;;;-15.70;68.40;-17.00;97354.00;;;;4936918;28;87471;-56
2021/12/21 04:26:02;;;;;;;1.92;1.17;;;-15.70;68.50;-17.00;97361.00;;;;4949524;28;87146;-58
2021/12/21 04:28:28;;;;;;;4.10;1.70;;;-15.70;68.70;-17.00;97354.00;;;;4956499;28;87799;-57
2021/12/21 04:30:54;;;;;;;3.03;1.60;;;-15.70;69.00;-17.00;97360.00;;;;4949751;28;87169;-56
2021/12/21 04:33:22;;;;;;;3.35;1.58;;;-15.70;68.50;-17.00;97351.00;;;;4934809;28;88336;-59
2021/12/21 04:35:48;;;;;;;3.70;1.73;;;-15.70;68.80;-16.90;97359.00;;;;4955908;28;87176;-58
2021/12/21 04:38:21;;;;;;;3.88;1.73;;;-15.60;69.30;-16.90;97364.00;;;;4947568;28;87557;-55
2021/12/21 04:40:55;;;;;;;4.35;2.03;;;-15.60;69.00;-16.90;97370.00;;;;4947089;28;88362;-57
2021/12/21 04:43:22;;;;;;;2.25;1.20;;;-15.60;69.00;-16.90;97365.00;;;;4949757;28;87940;-56
2021/12/21 04:45:48;;;;;;;3.47;1.77;;;-15.50;69.10;-16.90;97374.00;;;;4952331;28;87218;-57
2021/12/21 04:48:14;;;;;;;3.65;1.40;;;-15.60;68.90;-16.90;97376.00;;;;4950075;28;89111;-55
2021/12/21 04:50:42;;;;;;;4.18;1.17;;;-15.60;69.00;-16.90;97373.00;;;;4952846;28;87358;-57
2021/12/21 04:53:09;;;;;;;2.97;1.55;;;-15.60;68.80;-17.00;97372.00;;;;4945848;28;88001;-57
2021/12/21 04:55:35;;;;;;;3.72;1.48;;;-15.60;68.70;-17.00;97375.00;;;;4933426;28;87606;-58
2021/12/21 04:58:03;;;;;;;6.55;3.35;;;-15.70;68.40;-17.00;97385.00;;;;4949880;28;88858;-57
2021/12/21 05:00:30;;;;;;;4.63;1.92;;;-15.70;68.90;-17.00;97377.00;;;;4947039;28;88391;-56
2021/12/21 05:02:56;;;;;;;1.98;1.25;;;-15.60;69.30;-17.00;97364.00;;;;4952323;28;87390;-57
2021/12/21 05:05:23;;;;;;;3.65;2.00;;;-15.60;69.40;-16.90;97381.00;;;;4943664;28;87051;-55
2021/12/21 05:07:54;;;;;;;2.55;1.42;;;-15.60;69.00;-17.00;97378.00;;;;4948742;28;87495;-56
2021/12/21 05:10:21;;;;;;;3.92;1.80;;;-15.70;68.70;-17.00;97392.00;;;;4953865;28;88431;-54
2021/12/21 05:12:47;;;;;;;4.28;2.33;;;-15.70;68.80;-17.00;97387.00;;;;4950382;28;87726;-58
2021/12/21 05:15:13;;;;;;;2.88;1.60;;;-15.70;68.90;-17.00;97403.00;;;;4953614;28;86673;-54
2021/12/21 05:17:39;;;;;;;5.72;1.63;;;-15.70;68.50;-17.10;97396.00;;;;4947935;28;88572;-54
2021/12/21 05:20:06;;;;;;;4.50;2.10;;;-15.80;68.60;-17.10;97393.00;;;;4955771;28;87624;-57
2021/12/21 05:22:32;;;;;;;2.92;1.50;;;-15.80;68.80;-17.10;97398.00;;;;4941634;28;88266;-54
2021/12/21 05:24:58;;;;;;;4.78;3.30;;;-15.80;68.80;-17.10;97400.00;;;;4946830;28;87131;-58
2021/12/21 05:27:24;;;;;;;2.70;1.42;;;-15.80;68.30;-17.10;97414.00;;;;4949276;28;88005;-52
2021/12/21 05:29:51;;;;;;;3.88;1.52;;;-15.80;68.40;-17.20;97411.00;;;;4952386;28;88048;-56
2021/12/21 05:32:17;;;;;;;2.75;1.27;;;-15.80;67.00;-17.20;97412.00;;;;4949997;28;87103;-57
2021/12/21 05:34:43;;;;;;;4.40;2.35;;;-15.80;66.90;-17.10;97392.00;;;;4954711;28;87344;-58
2021/12/21 05:37:09;;;;;;;2.97;1.27;;;-15.80;67.00;-17.20;97413.00;;;;4952030;28;88684;-58
2021/12/21 05:39:53;;;;;;;3.13;1.30;;;-15.90;66.80;-17.20;97410.00;;;;4951180;28;86299;-56
2021/12/21 05:42:19;;;;;;;3.15;1.50;;;-15.80;67.00;-17.20;97407.00;;;;4932844;28;87519;-57
2021/12/21 05:44:46;;;;;;;4.53;2.75;;;-15.90;67.10;-17.30;97414.00;;;;4938455;28;88857;-57
2021/12/21 05:47:12;;;;;;;3.50;1.73;;;-15.90;67.20;-17.30;97430.00;;;;4945947;28;89540;-55
2021/12/21 05:49:38;;;;;;;2.83;1.30;;;-16.00;67.10;-17.30;97427.00;;;;4926758;28;88386;-56
2021/12/21 05:52:05;;;;;;;2.05;1.33;;;-15.90;67.90;-17.30;97432.00;;;;4942502;28;87227;-58
2021/12/21 05:54:31;;;;;;;4.18;2.03;;;-16.00;67.70;-17.40;97430.00;;;;4948647;28;87558;-57
2021/12/21 05:56:57;;;;;;;3.70;1.70;;;-16.00;67.90;-17.30;97427.00;;;;4948853;28;88069;-58
2021/12/21 05:59:24;;;;;;;3.45;1.40;;;-16.00;68.20;-17.30;97425.00;;;;4947609;28;87457;-58
2021/12/21 06:01:50;;;;;;;4.05;1.67;;;-16.00;68.70;-17.30;97429.00;;;;4945029;28;87549;-53
2021/12/21 06:04:16;;;;;;;5.97;2.58;;;-15.90;68.50;-17.30;97428.00;;;;4949192;28;86464;-56
2021/12/21 06:06:42;;;;;;;3.50;1.13;;;-15.90;68.10;-17.30;97434.00;;;;4952745;28;87336;-55
2021/12/21 06:09:11;;;;;;;4.70;1.80;;;-15.90;68.20;-17.30;97432.00;;;;4949427;28;87880;-58
2021/12/21 06:11:45;;;;;;;2.40;1.67;;;-15.90;67.80;-17.20;97435.00;;;;4946374;28;88093;-58
2021/12/21 06:25:41;;;;;;;5.80;2.00;;;-15.90;68.20;-17.30;97446.00;;;;4896662;28;87635;-58
2021/12/21 06:28:10;;;;;;;2.63;1.63;;;-15.90;68.10;-17.30;97450.00;;;;4898241;28;88845;-58
2021/12/21 06:30:39;;;;;;;3.72;1.85;;;-15.90;68.00;-17.30;97453.00;;;;4919876;28;88333;-59
2021/12/21 06:33:07;;;;;;;3.50;1.55;;;-15.90;67.40;-17.30;97445.00;;;;4929825;28;87022;-59
2021/12/21 06:35:35;;;;;;;3.25;1.70;;;-15.90;67.30;-17.30;97457.00;;;;4934605;28;87403;-54
2021/12/21 06:38:02;;;;;;;4.63;2.15;;;-16.00;67.10;-17.30;97453.00;;;;4932262;28;89698;-58
2021/12/21 06:40:30;;;;;;;2.55;1.50;;;-16.00;67.50;-17.30;97460.00;;;;4926107;28;88282;-57
2021/12/21 06:42:59;;;;;;;3.80;1.77;;;-16.00;67.70;-17.30;97469.00;;;;4920507;28;87173;-56
2021/12/21 06:45:42;;;;;;;5.20;2.15;;;-16.00;67.70;-17.30;97470.00;;;;4929031;28;87111;-60
2021/12/21 06:53:45;;;;;;;4.63;2.95;;;-15.90;68.20;-17.10;97463.00;;;;4921160;28;87407;-56
2021/12/21 06:56:12;;;;;;;5.55;1.73;;;-15.80;68.40;-17.10;97457.00;;;;4931670;28;86569;-57
2021/12/21 06:58:39;;;;;;;11.45;5.35;;;-15.70;68.80;-17.00;97451.00;;;;4926085;28;88860;-60
2021/12/21 07:01:06;;;;;;;3.17;1.85;;;-15.70;68.20;-17.10;97451.00;;;;4928452;28;87248;-56
2021/12/21 07:03:33;;;;;;;4.57;3.13;;;-15.70;67.60;-17.00;97457.00;;;;4932299;28;88283;-58
2021/12/21 07:06:05;;;;;;;4.43;1.83;;;-15.70;67.30;-17.00;97471.00;;;;4924883;28;87605;-57
2021/12/21 07:08:36;;;;;;;4.82;2.10;;;-15.70;67.10;-17.10;97480.00;;;;4920992;28;87765;-52
2021/12/21 07:11:26;;;;;;;2.50;1.73;;;-15.80;67.00;-17.10;97467.00;;;;4922994;28;87392;-56
2021/12/21 07:19:23;;;;;;;3.97;2.38;;;-15.70;67.00;-17.00;97467.00;;;;4926838;28;88964;-57
2021/12/21 07:21:49;;;;;;;4.22;2.40;;;-15.70;66.80;-16.90;97495.00;;;;4930943;28;87297;-54
2021/12/21 07:24:15;;;;;;;3.92;1.92;;;-15.60;67.00;-16.90;97498.00;;;;4929561;28;87622;-58
2021/12/21 07:26:41;;;;;;;4.65;1.63;;;-15.60;66.80;-16.90;97493.00;;;;4928001;28;87316;-55
2021/12/21 07:29:07;;;;;;;5.78;2.50;;;-15.60;66.50;-17.00;97499.00;;;;4931452;28;88978;-58
2021/12/21 07:31:34;;;;;;;5.03;1.98;;;-15.70;66.40;-17.00;97499.00;;;;4932883;28;88397;-58
2021/12/21 07:34:00;;;;;;;3.88;1.45;;;-15.70;66.80;-16.90;97483.00;;;;4934689;28;87089;-56
2021/12/21 07:36:30;;;;;;;4.05;2.10;;;-15.60;67.20;-16.90;97511.00;;;;4937577;28;87053;-56
2021/12/21 07:38:57;;;;;;;3.15;1.85;;;-15.60;67.20;-16.90;97487.00;;;;4936050;28;87645;-57
2021/12/21 07:41:24;;;;;;;3.05;1.45;;;-15.60;66.90;-16.80;97500.00;;;;4926954;28;88206;-60
2021/12/21 07:43:50;;;;;;;2.83;1.73;;;-15.50;66.60;-16.80;97488.00;;;;4925297;28;87312;-58
2021/12/21 07:46:16;;;;;;;9.07;2.63;;;-15.50;65.70;-16.70;97496.00;;;;4932280;28;86701;-55
2021/12/21 07:48:42;;;;;;;6.50;1.88;;;-15.40;65.60;-16.70;97491.00;;;;4933402;28;90134;-58
2021/12/21 07:51:09;;;;;;;6.18;2.35;;;-15.40;65.60;-16.60;97495.00;;;;4921785;28;89105;-55
2021/12/21 07:53:36;;;;;;;8.15;3.55;;;-15.40;65.60;-16.60;97489.00;;;;4929077;28;88673;-54
2021/12/21 07:56:04;;;;;;;3.78;2.10;;;-15.40;65.60;-16.60;97502.00;;;;4931901;28;87689;-51
2021/12/21 07:58:32;;;;;;;3.95;2.15;;;-15.40;65.60;-16.60;97515.00;;;;4932413;28;88820;-58
2021/12/21 08:01:00;;;;;;;4.45;2.15;;;-15.30;65.80;-16.40;97504.00;;;;4926063;28;88818;-53
2021/12/21 08:03:28;;;;;;;4.95;1.63;;;-15.20;65.80;-16.50;97489.00;;;;4932998;28;87572;-57
2021/12/21 08:05:57;;;;;;;6.97;3.50;;;-15.20;65.80;-16.50;97500.00;;;;4936113;28;87577;-58
2021/12/21 08:08:27;;;;;;;4.47;2.08;;;-15.30;65.70;-16.50;97489.00;;;;4928995;28;88288;-57
2021/12/21 08:11:07;;;;;;;4.28;1.88;;;-15.30;65.90;-16.40;97505.00;;;;4932381;28;87381;-57
2021/12/21 08:13:35;;;;;;;5.35;3.38;;;-15.20;65.80;-16.50;97503.00;;;;4936370;28;87675;-58
2021/12/21 08:16:01;;;;;;;3.17;1.55;;;-15.20;65.90;-16.50;97511.00;;;;4930228;28;87295;-54
2021/12/21 08:18:27;;;;;;;3.75;2.03;;;-15.30;65.60;-16.50;97501.00;;;;4933318;28;89518;-57
2021/12/21 08:20:53;;;;;;;5.25;1.95;;;-15.30;66.10;-16.40;97503.00;;;;4935118;28;89196;-57
2021/12/21 08:23:19;;;;;;;4.22;2.00;;;-15.20;66.20;-16.40;97505.00;;;;4927414;28;88564;-57
2021/12/21 08:25:45;;;;;;;5.57;2.58;;;-15.20;66.40;-16.50;97505.00;;;;4941794;28;87105;-53
2021/12/21 08:28:11;;;;;;;6.15;1.98;;;-15.30;65.70;-16.40;97502.00;;;;4952484;28;88607;-57
2021/12/21 08:30:38;;;;;;;5.55;3.70;;;-15.20;66.20;-16.40;97514.00;;;;4954989;28;87450;-56
2021/12/21 08:33:07;;;;;;;5.65;2.65;;;-15.20;66.20;-16.40;97495.00;;;;4953563;28;88024;-58
2021/12/21 08:35:33;;;;;;;6.20;2.22;;;-15.20;65.80;-16.40;97493.00;;;;4945246;28;86656;-53
2021/12/21 08:38:05;;;;;;;4.88;2.50;;;-15.20;66.50;-16.30;97498.00;;;;4955019;28;88093;-58
2021/12/21 08:40:40;;;;;;;3.80;1.75;;;-15.10;65.10;-16.40;97488.00;;;;4946236;28;87117;-53
2021/12/21 08:43:11;;;;;;;5.07;1.85;;;-15.20;64.00;-16.40;97501.00;;;;4942055;28;88700;-57
2021/12/21 08:45:39;;;;;;;4.40;2.30;;;-15.20;64.00;-16.40;97495.00;;;;4950793;28;88079;-59
2021/12/21 08:48:07;;;;;;;4.00;1.73;;;-15.20;63.80;-16.40;97488.00;;;;4950130;28;88634;-54
2021/12/21 08:50:36;;;;;;;4.43;2.20;;;-15.20;63.80;-16.40;97492.00;;;;4930703;28;88856;-55
2021/12/21 08:53:03;;;;;;;4.93;2.00;;;-15.20;64.10;-16.30;97489.00;;;;4946494;28;87530;-56
2021/12/21 08:55:29;;;;;;;4.32;2.60;;;-15.10;64.60;-16.30;97494.00;;;;4950623;28;88520;-51
2021/12/21 08:57:55;;;;;;;4.30;1.80;;;-15.10;64.20;-16.30;97494.00;;;;4927004;28;88709;-55
2021/12/21 09:00:22;;;;;;;4.72;2.97;;;-15.20;64.10;-16.30;97513.00;;;;4950813;28;87440;-56
2021/12/21 09:02:49;;;;;;;5.53;3.72;;;-15.10;64.30;-16.20;97521.00;;;;4950611;28;88076;-51
2021/12/21 09:05:20;;;;;;;5.32;2.10;;;-15.00;64.50;-16.20;97496.00;;;;4952479;28;88013;-54
2021/12/21 09:07:48;;;;;;;4.68;1.92;;;-15.00;64.60;-16.20;97495.00;;;;4952934;28;88394;-54
2021/12/21 09:10:17;;;;;;;4.93;3.75;;;-15.00;65.30;-16.20;97498.00;;;;4937090;28;88689;-56
2021/12/21 09:12:44;;;;;;;8.98;2.45;;;-15.00;64.60;-16.20;97503.00;;;;4954010;28;88782;-55
2021/12/21 09:15:12;;;;;;;4.97;2.55;;;-15.00;64.60;-16.30;97512.00;;;;4951409;28;87461;-56
2021/12/21 09:17:40;;;;;;;3.38;2.03;;;-15.10;64.40;-16.20;97502.00;;;;4952158;28;87899;-54
2021/12/21 09:20:08;;;;;;;6.60;4.70;;;-15.10;64.90;-16.20;97492.00;;;;4947562;28;87492;-56
2021/12/21 09:22:36;;;;;;;3.80;1.95;;;-15.00;65.30;-16.10;97504.00;;;;4948860;28;86993;-54
2021/12/21 09:25:03;;;;;;;4.65;2.20;;;-14.90;65.90;-16.10;97515.00;;;;4952870;28;86759;-55
2021/12/21 09:27:30;;;;;;;6.13;2.78;;;-14.90;65.00;-16.10;97519.00;;;;4946872;28;88471;-56
2021/12/21 09:29:56;;;;;;;6.57;4.20;;;-15.00;64.60;-16.10;97518.00;;;;4937908;28;87355;-57
2021/12/21 09:32:22;;;;;;;6.68;2.75;;;-14.90;65.20;-16.20;97498.00;;;;4951421;28;87999;-55
2021/12/21 09:34:51;;;;;;;6.53;2.75;;;-15.00;65.50;-16.20;97522.00;;;;4944839;28;87226;-54
2021/12/21 09:37:20;;;;;;;7.00;2.13;;;-15.00;64.60;-16.30;97530.00;;;;4951911;28;88321;-55
2021/12/21 09:39:54;;;;;;;6.15;3.95;;;-15.10;64.10;-16.30;97522.00;;;;4935875;28;88477;-54
2021/12/21 09:42:27;;;;;;;3.28;1.73;;;-15.10;64.00;-16.40;97527.00;;;;4944443;28;87051;-55
2021/12/21 09:44:55;;;;;;;9.10;2.53;;;-15.10;63.50;-16.30;97523.00;;;;4952185;28;86994;-52
2021/12/21 09:47:21;;;;;;;5.40;2.50;;;-15.10;64.40;-16.10;97525.00;;;;4950542;28;89129;-54
2021/12/21 09:49:49;;;;;;;5.57;2.72;;;-15.00;65.00;-16.00;97529.00;;;;4949645;28;87244;-54
2021/12/21 09:52:23;;;;;;;6.78;2.83;;;-14.90;64.70;-16.00;97518.00;;;;4932446;28;86987;-56
2021/12/21 09:54:50;;;;;;;5.68;2.30;;;-14.80;65.00;-16.00;97513.00;;;;4949624;28;88897;-57
2021/12/21 09:57:19;;;;;;;5.00;2.85;;;-14.80;64.90;-16.00;97500.00;;;;4935985;28;90019;-55
2021/12/21 09:59:47;;;;;;;6.13;2.53;;;-14.80;64.60;-16.00;97510.00;;;;4949176;28;88139;-53
2021/12/21 10:02:17;;;;;;;5.40;2.30;;;-14.90;64.30;-16.00;97520.00;;;;4945981;28;87027;-53
2021/12/21 10:04:53;;;;;;;7.85;3.50;;;-14.90;63.90;-16.00;97519.00;;;;4954724;28;87252;-54
2021/12/21 10:07:22;;;;;;;5.72;2.67;;;-14.80;64.50;-16.00;97510.00;;;;4937221;28;88459;-57
2021/12/21 10:09:50;;;;;;;4.43;2.40;;;-14.80;64.80;-16.00;97530.00;;;;4943965;28;88488;-53
2021/12/21 10:12:39;;;;;;;7.80;4.00;;;-14.80;64.90;-15.90;97529.00;;;;4952972;28;87177;-63
2021/12/21 10:15:16;;;;;;;4.82;2.20;;;-14.70;64.50;-15.90;97526.00;;;;4949838;28;86308;-63
2021/12/21 10:18:00;;;;;;;6.78;4.07;;;-14.70;63.80;-16.00;97527.00;;;;4947716;28;88748;-62
2021/12/21 10:20:41;;;;;;;5.03;2.55;;;-14.80;62.90;-16.00;97515.00;;;;4953321;28;88459;-62
2021/12/21 10:23:25;;;;;;;4.67;2.20;;;-14.80;62.80;-16.00;97523.00;;;;4949509;28;88483;-63
2021/12/21 10:26:10;;;;;;;4.90;2.60;;;-14.80;63.90;-15.90;97514.00;;;;4950306;28;87325;-63
2021/12/21 10:28:45;;;;;;;6.70;4.22;;;-14.70;63.00;-15.80;97528.00;;;;4927245;28;87696;-61
2021/12/21 10:31:26;;;;;;;8.48;2.55;;;-14.60;63.80;-16.00;97534.00;;;;4948243;28;88547;-62
2021/12/21 10:33:53;;;;;;;6.70;2.87;;;-14.80;62.60;-16.00;97534.00;;;;4946335;28;87100;-65
2021/12/21 10:36:20;;;;;;;6.75;3.10;;;-14.70;64.50;-16.00;97538.00;;;;4954731;28;87120;-63
2021/12/21 10:38:57;;;;;;;6.32;3.08;;;-14.80;63.20;-16.10;97542.00;;;;4951927;28;87211;-62
2021/12/21 10:41:42;;;;;;;5.78;2.65;;;-14.90;63.20;-16.10;97535.00;;;;4944492;28;88448;-63
2021/12/21 10:44:18;;;;;;;6.88;2.55;;;-14.90;62.60;-16.10;97546.00;;;;4944942;28;87410;-62
2021/12/21 10:46:49;;;;;;;5.78;2.40;;;-15.00;62.60;-16.20;97564.00;;;;4944693;28;88061;-63
2021/12/21 10:49:24;;;;;;;4.37;2.20;;;-15.00;62.40;-16.20;97544.00;;;;4949782;28;89450;-63
2021/12/21 10:51:53;;;;;;;6.30;4.25;;;-15.00;62.30;-16.20;97549.00;;;;4949861;28;88139;-64
2021/12/21 10:54:44;;;;;;;7.75;4.45;;;-15.10;62.40;-16.20;97548.00;;;;4941108;28;87046;-61
2021/12/21 10:57:32;;;;;;;5.35;2.70;;;-15.00;62.40;-16.30;97546.00;;;;4948148;28;86914;-53
2021/12/21 11:00:05;;;;;;;4.72;2.35;;;-15.10;61.80;-16.30;97542.00;;;;4947755;28;87855;-56
2021/12/21 11:02:34;;;;;;;4.72;2.38;;;-15.10;62.10;-16.30;97546.00;;;;4948034;28;88227;-58
2021/12/21 11:05:08;;;;;;;7.40;3.70;;;-15.10;62.30;-16.30;97571.00;;;;4950833;28;87089;-56
2021/12/21 11:10:37;;;;;;;5.65;3.85;;;-15.20;61.90;-16.50;97552.00;;;;4937495;28;87503;-58
2021/12/21 11:13:12;;;;;;;5.07;2.03;;;-15.20;62.20;-16.50;97561.00;;;;4957706;28;87608;-57
2021/12/21 11:15:52;;;;;;;4.15;2.00;;;-15.20;62.20;-16.40;97551.00;;;;4952903;28;87983;-56
2021/12/21 11:18:22;;;;;;;6.38;2.72;;;-15.20;62.60;-16.50;97559.00;;;;4954293;28;87067;-53
2021/12/21 11:20:54;;;;;;;8.63;4.63;;;-15.30;62.10;-16.60;97566.00;;;;4933861;28;87573;-55
2021/12/21 11:23:23;;;;;;;4.93;2.45;;;-15.30;62.10;-16.70;97564.00;;;;4943969;28;87320;-57
2021/12/21 11:25:56;;;;;;;4.57;2.15;;;-15.40;62.60;-16.70;97553.00;;;;4937196;28;87637;-56
2021/12/21 11:28:29;;;;;;;5.90;2.75;;;-15.40;63.00;-16.70;97562.00;;;;4941358;28;87436;-57
2021/12/21 11:31:00;;;;;;;5.65;2.50;;;-15.40;63.80;-16.70;97560.00;;;;4951388;28;88790;-58
2021/12/21 11:33:29;;;;;;;6.20;3.10;;;-15.40;64.10;-16.70;97565.00;;;;4950180;28;88526;-56
2021/12/21 11:38:42;;;;;;;4.03;2.17;;;-15.40;64.50;-16.70;97568.00;;;;4945331;28;88312;-53
2021/12/21 11:41:09;;;;;;;3.60;2.08;;;-15.40;64.10;-16.70;97570.00;;;;4950270;28;88687;-54
2021/12/21 11:43:50;;;;;;;6.35;2.72;;;-15.40;63.70;-16.70;97591.00;;;;4940415;28;88252;-55
2021/12/21 11:46:26;;;;;;;7.03;3.25;;;-15.50;63.80;-16.80;97586.00;;;;4956203;28;87338;-65
2021/12/21 11:49:41;;;;;;;5.07;2.30;;;-15.50;63.30;-16.90;97581.00;;;;4932874;28;87972;-65